Time;durP1;ratioP1;P1;durP2;ratioP2;P2;SDS_P1;SDS_P2;PMS_P1;PMS_P2;Temp;Humidity;BMP_temperature;BMP_pressure;BME280_temperature;BME280_humidity;BME280_pressure;Samples;Min_cycle;Max_cycle;Signal;HPM_P1;HPM_P2
2022/10/02 00:04:56;;;;;;;3.50;2.50;;;;;;;13.92;68.25;98438.04;224113;1254;139411;-63
2022/10/02 00:10:08;;;;;;;5.60;3.00;;;;;;;13.95;68.12;98439.52;224765;1243;139177;-63
2022/10/02 00:15:19;;;;;;;6.40;3.10;;;;;;;13.92;67.96;98446.02;224055;1243;139769;-65
2022/10/02 00:20:30;;;;;;;4.20;3.10;;;;;;;13.87;67.95;98442.88;224979;1237;140268;-66
2022/10/02 00:25:52;;;;;;;3.90;2.60;;;;;;;13.89;67.92;98450.27;224773;1244;139609;-66
2022/10/02 00:31:15;;;;;;;5.40;3.30;;;;;;;13.92;68.06;98454.04;224075;1237;139404;-65
2022/10/02 00:36:43;;;;;;;4.60;3.10;;;;;;;13.93;68.17;98457.37;224759;1241;139081;-64
2022/10/02 00:41:57;;;;;;;6.10;3.50;;;;;;;13.89;67.96;98456.13;224148;1251;139816;-64
2022/10/02 00:47:24;;;;;;;7.20;3.50;;;;;;;13.88;68.10;98464.93;224100;1244;139407;-65
2022/10/02 00:52:45;;;;;;;4.00;2.90;;;;;;;13.89;68.00;98472.71;224137;1248;139359;-65
2022/10/02 00:58:20;;;;;;;4.70;3.00;;;;;;;13.90;67.97;98478.87;224782;1236;140722;-65
2022/10/02 01:03:28;;;;;;;3.60;2.70;;;;;;;13.93;68.18;98479.85;224035;1251;140087;-64
2022/10/02 01:08:31;;;;;;;5.80;3.00;;;;;;;13.94;68.19;98481.00;224247;1250;140353;-63
2022/10/02 01:13:34;;;;;;;5.30;2.70;;;;;;;13.94;68.18;98492.80;224131;1251;140177;-65
2022/10/02 01:18:37;;;;;;;8.00;2.70;;;;;;;13.93;68.19;98495.33;224080;1254;140858;-64
2022/10/02 01:24:06;;;;;;;5.50;2.80;;;;;;;14.00;68.18;98497.11;224845;1244;140133;-63
2022/10/02 01:29:09;;;;;;;5.60;3.00;;;;;;;14.03;68.15;98496.10;224839;1244;139820;-63
2022/10/02 01:34:12;;;;;;;5.10;2.90;;;;;;;14.04;68.21;98499.09;224065;1244;139242;-63
2022/10/02 01:39:16;;;;;;;5.80;2.70;;;;;;;14.05;68.19;98503.80;224142;1248;139831;-68
2022/10/02 01:44:19;;;;;;;4.70;2.70;;;;;;;14.03;68.17;98510.43;224912;1244;139293;-66
2022/10/02 01:49:40;;;;;;;4.70;2.60;;;;;;;14.00;68.00;98522.61;224670;1238;139605;-68
2022/10/02 01:55:09;;;;;;;4.70;2.50;;;;;;;14.02;68.13;98528.13;224078;1251;139521;-69
2022/10/02 02:00:19;;;;;;;4.10;2.50;;;;;;;14.08;68.41;98528.92;224104;1251;139400;-69
2022/10/02 02:05:39;;;;;;;3.90;2.30;;;;;;;14.09;68.34;98534.85;224687;1230;139586;-70
2022/10/02 02:11:00;;;;;;;3.10;2.20;;;;;;;14.09;68.29;98540.02;224836;1244;140409;-69
2022/10/02 02:16:28;;;;;;;7.70;2.40;;;;;;;14.07;68.31;98545.56;223875;1247;141325;-65
2022/10/02 02:21:55;;;;;;;3.30;2.00;;;;;;;14.04;68.18;98544.92;221781;1244;141304;-65
2022/10/02 02:27:03;;;;;;;6.00;2.00;;;;;;;14.07;68.24;98545.73;221824;1237;140938;-65
2022/10/02 02:32:09;;;;;;;2.10;1.90;;;;;;;14.10;68.38;98552.40;221836;1246;139529;-63
2022/10/02 02:37:18;;;;;;;3.00;1.80;;;;;;;14.14;68.51;98550.90;221677;1237;139140;-64
2022/10/02 02:42:27;;;;;;;2.90;2.40;;;;;;;14.15;68.50;98560.77;221918;1237;139067;-65
2022/10/02 02:47:42;;;;;;;3.20;1.90;;;;;;;14.14;68.42;98557.48;221957;1243;138867;-63
2022/10/02 02:53:10;;;;;;;2.60;1.70;;;;;;;14.12;68.40;98555.11;221663;1245;139702;-66
2022/10/02 02:58:39;;;;;;;2.30;1.60;;;;;;;14.10;68.39;98561.34;221788;1246;140454;-64
2022/10/02 03:03:43;;;;;;;5.50;2.20;;;;;;;14.07;68.36;98566.97;221870;1244;140538;-63
2022/10/02 03:08:50;;;;;;;4.90;2.50;;;;;;;14.04;68.50;98574.02;221895;1243;138959;-65
2022/10/02 03:14:31;;;;;;;3.60;2.60;;;;;;;14.01;68.56;98579.61;221891;1240;138910;-65
2022/10/02 03:20:06;;;;;;;4.50;3.00;;;;;;;14.00;68.62;98581.82;221912;1245;138960;-64
2022/10/02 03:25:30;;;;;;;6.80;3.40;;;;;;;13.98;68.65;98580.04;221646;1246;139922;-65
2022/10/02 03:30:36;;;;;;;3.70;2.70;;;;;;;13.98;68.43;98582.69;221717;1245;139511;-62
2022/10/02 03:35:41;;;;;;;5.10;3.40;;;;;;;13.98;68.56;98580.41;221740;1250;140248;-62
2022/10/02 03:40:44;;;;;;;5.30;3.00;;;;;;;13.98;68.75;98581.29;221699;1245;139878;-62
2022/10/02 03:45:47;;;;;;;5.40;2.80;;;;;;;14.00;68.67;98588.11;221878;1237;139589;-65
2022/10/02 03:50:54;;;;;;;4.60;2.40;;;;;;;13.97;68.52;98602.62;221957;1244;139784;-68
2022/10/02 03:56:10;;;;;;;5.20;2.60;;;;;;;13.91;68.53;98609.13;222016;1243;139767;-64
2022/10/02 04:01:23;;;;;;;3.70;2.30;;;;;;;13.89;68.58;98605.90;221986;1246;140043;-63
2022/10/02 04:06:45;;;;;;;3.00;1.90;;;;;;;13.88;68.41;98612.23;221900;1244;140730;-63
2022/10/02 04:11:58;;;;;;;2.50;2.00;;;;;;;13.86;68.48;98616.84;221796;1243;140103;-64
2022/10/02 04:17:07;;;;;;;8.50;5.50;;;;;;;13.88;68.50;98629.20;222135;1244;139609;-65
2022/10/02 04:22:29;;;;;;;5.30;2.90;;;;;;;13.87;68.52;98634.44;224116;1251;139197;-68
2022/10/02 04:27:39;;;;;;;2.10;1.60;;;;;;;13.85;68.41;98641.73;224068;1245;139285;-68
2022/10/02 04:32:42;;;;;;;2.40;2.00;;;;;;;13.89;68.39;98647.30;224275;1251;139854;-68
2022/10/02 04:38:05;;;;;;;3.10;2.00;;;;;;;13.91;68.17;98647.43;224806;1242;139971;-65
2022/10/02 04:43:41;;;;;;;3.90;1.90;;;;;;;13.92;68.26;98655.62;224011;1244;139533;-68
2022/10/02 04:49:03;;;;;;;5.10;2.00;;;;;;;13.90;68.11;98666.63;224748;1241;139427;-68
2022/10/02 04:54:32;;;;;;;4.10;1.80;;;;;;;13.88;68.09;98670.15;224084;1244;139324;-67
2022/10/02 05:00:05;;;;;;;3.30;1.50;;;;;;;13.94;68.16;98676.48;224717;1236;139708;-66
2022/10/02 05:05:39;;;;;;;2.90;1.80;;;;;;;14.01;68.10;98690.05;223862;1256;140515;-66
2022/10/02 05:10:58;;;;;;;2.70;1.70;;;;;;;14.01;68.02;98694.13;224087;1254;139337;-66
2022/10/02 05:16:19;;;;;;;2.50;1.50;;;;;;;13.98;68.05;98694.05;223936;1237;138975;-67
2022/10/02 05:21:44;;;;;;;5.10;1.60;;;;;;;13.95;67.81;98701.36;224779;1244;140220;-67
2022/10/02 05:26:58;;;;;;;18.50;13.40;;;;;;;14.01;67.68;98708.44;224143;1245;141108;-64
2022/10/02 05:32:31;;;;;;;2.00;1.70;;;;;;;14.10;67.88;98715.34;224864;1244;139889;-63
2022/10/02 05:37:34;;;;;;;5.30;1.90;;;;;;;14.17;67.64;98720.07;224780;1243;139556;-64
2022/10/02 05:42:56;;;;;;;3.20;1.60;;;;;;;14.21;67.44;98730.34;224103;1251;141761;-63
2022/10/02 05:48:10;;;;;;;4.00;1.90;;;;;;;14.20;67.32;98731.27;224587;1244;139325;-64
2022/10/02 05:53:39;;;;;;;6.70;1.80;;;;;;;14.20;67.32;98741.77;224832;1238;139250;-65
2022/10/02 05:58:50;;;;;;;4.60;1.90;;;;;;;14.27;67.30;98747.10;224107;1251;139942;-64
2022/10/02 06:04:02;;;;;;;4.50;1.90;;;;;;;14.33;67.22;98751.09;224092;1244;139270;-65
2022/10/02 06:09:17;;;;;;;3.80;1.70;;;;;;;14.35;67.24;98755.70;224715;1243;139199;-65
2022/10/02 06:14:33;;;;;;;4.70;2.00;;;;;;;14.39;67.06;98761.33;224180;1251;139159;-64
2022/10/02 06:19:46;;;;;;;5.20;1.80;;;;;;;14.38;66.92;98768.83;224012;1254;139362;-64
2022/10/02 06:25:12;;;;;;;5.70;1.70;;;;;;;14.36;66.86;98769.56;224717;1244;140058;-71
2022/10/02 06:30:17;;;;;;;4.70;1.70;;;;;;;14.40;66.81;98772.59;224735;1239;140526;-65
2022/10/02 06:35:55;;;;;;;5.00;1.60;;;;;;;14.48;66.98;98786.29;224115;1245;140247;-64
2022/10/02 06:41:14;;;;;;;5.20;1.70;;;;;;;14.53;66.80;98789.50;224086;1252;139426;-63
2022/10/02 06:46:42;;;;;;;4.10;1.70;;;;;;;14.55;66.78;98797.69;224115;1251;139878;-64
2022/10/02 06:52:05;;;;;;;3.50;1.70;;;;;;;14.60;66.69;98798.73;223881;1254;139113;-64
2022/10/02 06:57:16;;;;;;;2.60;1.30;;;;;;;14.58;66.45;98806.04;224062;1251;139704;-65
2022/10/02 07:02:43;;;;;;;5.80;1.60;;;;;;;14.60;66.38;98814.58;224177;1251;140008;-62
2022/10/02 07:07:56;;;;;;;4.60;1.60;;;;;;;14.65;66.36;98821.29;224029;1246;139281;-63
2022/10/02 07:13:12;;;;;;;5.20;1.90;;;;;;;14.68;66.42;98821.21;224738;1244;139479;-63
2022/10/02 07:18:57;;;;;;;4.60;1.70;;;;;;;14.74;66.12;98823.11;224039;1248;139051;-64
2022/10/02 07:24:44;;;;;;;3.70;1.50;;;;;;;14.79;66.07;98829.94;224001;1251;139845;-63
2022/10/02 07:30:07;;;;;;;3.30;1.10;;;;;;;14.82;65.83;98831.18;224691;1244;139005;-65
2022/10/02 07:35:29;;;;;;;6.10;1.60;;;;;;;14.90;65.76;98834.45;224804;1244;139376;-64
2022/10/02 07:41:09;;;;;;;5.40;1.30;;;;;;;14.96;65.67;98829.98;224079;1248;139032;-64
2022/10/02 07:46:31;;;;;;;6.90;1.80;;;;;;;15.00;65.48;98832.38;224927;1250;139101;-63
2022/10/02 07:51:52;;;;;;;5.00;2.10;;;;;;;14.97;65.02;98829.25;224782;1242;139385;-63
2022/10/02 07:57:01;;;;;;;3.20;1.50;;;;;;;14.96;65.10;98824.48;224131;1251;139122;-64
2022/10/02 08:02:20;;;;;;;;;;;;;;;15.00;65.09;98827.53;224169;1254;139208;-62
2022/10/02 08:07:24;;;;;;;9.70;2.90;;;;;;;15.08;65.16;98823.45;224772;1244;126261;-65
2022/10/02 08:12:39;;;;;;;6.10;1.90;;;;;;;15.23;65.14;98820.80;224050;1252;139433;-67
2022/10/02 08:17:48;;;;;;;4.90;1.90;;;;;;;15.40;64.92;98814.98;224104;1254;140332;-64
2022/10/02 08:22:59;;;;;;;6.10;1.80;;;;;;;15.54;64.73;98820.23;224793;1243;139746;-65
2022/10/02 08:28:27;;;;;;;5.90;1.90;;;;;;;15.59;64.09;98823.77;224725;1244;140122;-65
2022/10/02 08:33:30;;;;;;;5.10;1.60;;;;;;;15.55;63.80;98825.67;224141;1252;139055;-64
2022/10/02 08:38:50;;;;;;;9.20;4.50;;;;;;;15.50;63.56;98818.06;224258;1257;138805;-65
2022/10/02 08:44:20;;;;;;;6.60;1.80;;;;;;;15.47;63.30;98813.37;224819;1244;139608;-64
2022/10/02 08:49:41;;;;;;;6.30;2.10;;;;;;;15.43;63.10;98817.10;224063;1245;139124;-66
2022/10/02 08:55:12;;;;;;;7.00;2.10;;;;;;;15.36;62.85;98808.73;224744;1246;139040;-63
2022/10/02 09:00:31;;;;;;;4.30;1.60;;;;;;;15.30;62.79;98807.62;224084;1248;139102;-63
2022/10/02 09:05:59;;;;;;;8.60;1.80;;;;;;;15.31;62.81;98812.56;224107;1252;139647;-63
2022/10/02 09:11:19;;;;;;;5.90;1.80;;;;;;;15.48;62.81;98812.53;224705;1244;140734;-64
2022/10/02 09:17:04;;;;;;;4.60;1.60;;;;;;;15.62;62.75;98806.50;224058;1252;139372;-63
2022/10/02 09:22:29;;;;;;;5.20;1.50;;;;;;;15.76;62.48;98796.53;224091;1250;139463;-63
2022/10/02 09:27:48;;;;;;;6.10;1.70;;;;;;;15.81;62.01;98796.11;224115;1251;139127;-65
2022/10/02 09:33:32;;;;;;;5.70;1.90;;;;;;;15.79;61.45;98796.61;224858;1243;139279;-64
2022/10/02 09:38:53;;;;;;;7.00;1.90;;;;;;;15.77;61.16;98792.55;224265;1256;139187;-63
2022/10/02 09:44:18;;;;;;;4.80;1.90;;;;;;;15.73;60.96;98792.73;224780;1241;139412;-67
2022/10/02 09:49:27;;;;;;;7.10;1.80;;;;;;;15.67;60.77;98798.98;224758;1245;140328;-64
2022/10/02 09:54:56;;;;;;;5.40;1.70;;;;;;;15.62;60.64;98793.49;224783;1242;139526;-63
2022/10/02 10:00:13;;;;;;;6.60;1.70;;;;;;;15.59;60.75;98773.86;224666;1247;140090;-64
2022/10/02 10:05:30;;;;;;;6.80;1.80;;;;;;;15.67;60.78;98772.36;224757;1240;139929;-65
2022/10/02 10:11:06;;;;;;;6.30;1.90;;;;;;;15.76;60.67;98767.39;224134;1251;139154;-66
2022/10/02 10:16:29;;;;;;;8.50;2.90;;;;;;;15.91;60.85;98765.19;224600;1244;139870;-65
2022/10/02 10:22:03;;;;;;;10.30;3.00;;;;;;;16.18;61.07;98759.03;224061;1251;140404;-64
2022/10/02 10:27:49;;;;;;;12.20;1.90;;;;;;;16.56;60.58;98752.67;224140;1251;140448;-64
2022/10/02 10:32:55;;;;;;;;;;;;;;;16.86;59.85;98755.05;224259;1251;139314;-64
2022/10/02 10:43:36;;;;;;;4.70;1.70;;;;;;;17.00;58.49;98752.95;224075;1254;139449;-65
2022/10/02 10:49:16;;;;;;;6.30;2.00;;;;;;;16.95;58.20;98756.36;224071;1234;139406;-64
2022/10/02 10:54:36;;;;;;;6.40;1.40;;;;;;;16.87;57.83;98755.85;224825;1244;140666;-65
2022/10/02 11:00:03;;;;;;;6.30;1.70;;;;;;;16.76;57.79;98754.84;224109;1251;140121;-65
2022/10/02 11:05:06;;;;;;;63.10;47.30;;;;;;;16.69;57.67;98755.11;224730;1243;139043;-64
2022/10/02 11:10:26;;;;;;;7.50;2.50;;;;;;;16.65;57.33;98744.34;224125;1254;139774;-66
2022/10/02 11:15:47;;;;;;;11.10;1.90;;;;;;;16.75;57.37;98747.72;224006;1244;139028;-64
2022/10/02 11:20:55;;;;;;;7.30;1.80;;;;;;;16.90;57.28;98736.35;224235;1251;139948;-65
2022/10/02 11:26:11;;;;;;;5.00;1.60;;;;;;;16.99;57.00;98733.86;224015;1251;139731;-64
2022/10/02 11:31:35;;;;;;;7.80;1.60;;;;;;;17.04;56.61;98735.61;224057;1250;140259;-68
2022/10/02 11:37:30;;;;;;;5.60;1.40;;;;;;;17.02;56.09;98737.56;223982;1244;139849;-65
2022/10/02 11:43:17;;;;;;;5.30;1.30;;;;;;;17.05;56.09;98736.91;224500;1242;139526;-65
2022/10/02 11:48:42;;;;;;;4.30;1.50;;;;;;;17.09;55.59;98732.06;223904;1243;139826;-65
2022/10/02 11:54:10;;;;;;;6.80;1.80;;;;;;;17.10;55.35;98730.15;223957;1248;140901;-65
2022/10/02 11:59:37;;;;;;;4.70;1.40;;;;;;;17.14;55.38;98719.00;224062;1254;139835;-65
2022/10/02 12:05:03;;;;;;;6.10;2.30;;;;;;;17.29;55.42;98716.55;224741;1244;139412;-64
2022/10/02 12:10:38;;;;;;;4.20;1.10;;;;;;;17.38;55.15;98709.41;224070;1254;139282;-65
2022/10/02 12:16:02;;;;;;;4.20;1.30;;;;;;;17.43;54.95;98706.21;224669;1240;139389;-64
2022/10/02 12:27:08;;;;;;;6.50;1.50;;;;;;;17.25;54.36;98720.20;224714;1244;139499;-65
2022/10/02 12:32:34;;;;;;;7.20;1.30;;;;;;;17.03;55.42;98713.45;224749;1238;138963;-65
2022/10/02 12:38:15;;;;;;;2.80;1.20;;;;;;;16.85;56.01;98708.74;224014;1254;141098;-64
2022/10/02 12:43:28;;;;;;;5.00;1.10;;;;;;;16.74;56.17;98695.19;224702;1244;140534;-65
2022/10/02 12:48:44;;;;;;;3.10;0.90;;;;;;;16.75;56.60;98683.55;224621;1244;139309;-64
2022/10/02 12:54:15;;;;;;;6.50;3.00;;;;;;;16.93;56.73;98667.61;224027;1240;140481;-65
2022/10/02 12:59:40;;;;;;;1.90;1.00;;;;;;;17.22;56.76;98667.00;224066;1245;139311;-65
2022/10/02 13:04:49;;;;;;;5.20;1.20;;;;;;;17.53;56.53;98668.40;223932;1246;139514;-65
2022/10/02 13:10:18;;;;;;;3.30;1.30;;;;;;;17.82;56.12;98657.81;224050;1248;139724;-65
2022/10/02 13:15:34;;;;;;;5.10;1.60;;;;;;;18.13;55.46;98649.73;224058;1251;139279;-67
2022/10/02 13:20:46;;;;;;;3.40;1.50;;;;;;;18.43;54.95;98642.94;224768;1241;139119;-65
2022/10/02 13:26:11;;;;;;;3.60;1.30;;;;;;;18.56;54.12;98636.95;224028;1252;139639;-65
2022/10/02 13:31:20;;;;;;;4.50;1.70;;;;;;;18.43;53.51;98630.37;224011;1247;139555;-65
2022/10/02 13:36:49;;;;;;;3.50;1.50;;;;;;;18.25;53.25;98636.88;224666;1252;139630;-65
2022/10/02 13:42:16;;;;;;;3.50;1.40;;;;;;;18.19;53.14;98632.44;224031;1255;140868;-64
2022/10/02 13:47:42;;;;;;;3.90;1.20;;;;;;;18.18;52.99;98623.39;224639;1244;139675;-65
2022/10/02 13:53:13;;;;;;;6.50;1.50;;;;;;;18.18;52.59;98615.77;223987;1251;139187;-66
2022/10/02 13:59:00;;;;;;;4.20;1.50;;;;;;;18.21;52.24;98610.17;224053;1251;139803;-67
2022/10/02 14:04:36;;;;;;;4.30;1.60;;;;;;;18.18;51.97;98599.33;224504;1250;140125;-66
2022/10/02 14:09:54;;;;;;;7.10;1.40;;;;;;;18.06;51.66;98614.17;224001;1251;139290;-66
2022/10/02 14:15:30;;;;;;;5.00;1.30;;;;;;;17.92;51.50;98622.91;224174;1250;139784;-67
2022/10/02 14:20:53;;;;;;;6.40;2.50;;;;;;;17.78;51.48;98629.50;224142;1250;139283;-66
2022/10/02 14:26:08;;;;;;;3.70;1.40;;;;;;;17.63;51.99;98668.95;223947;1253;139578;-64
2022/10/02 14:31:31;;;;;;;5.10;1.20;;;;;;;17.27;52.96;98677.66;224686;1250;140147;-65
2022/10/02 14:36:59;;;;;;;4.30;1.10;;;;;;;16.80;54.02;98654.88;224043;1251;139633;-65
2022/10/02 14:42:28;;;;;;;2.60;1.10;;;;;;;16.52;55.11;98637.05;223873;1245;139956;-67
2022/10/02 14:47:56;;;;;;;3.80;1.40;;;;;;;16.34;55.78;98619.88;223764;1244;139953;-64
2022/10/02 14:53:27;;;;;;;3.00;1.20;;;;;;;16.19;56.39;98610.00;223969;1251;139420;-65
2022/10/02 14:59:09;;;;;;;3.80;1.50;;;;;;;16.07;56.78;98609.68;224012;1252;139976;-64
2022/10/02 15:04:20;;;;;;;5.30;1.70;;;;;;;16.04;57.54;98614.98;223218;1250;139537;-64
2022/10/02 15:09:34;;;;;;;3.70;1.50;;;;;;;16.01;57.84;98612.03;223995;1251;141603;-65
2022/10/02 15:15:28;;;;;;;4.60;1.60;;;;;;;16.02;58.07;98609.05;223993;1251;141081;-67
2022/10/02 15:20:54;;;;;;;4.00;1.40;;;;;;;16.09;58.34;98609.55;224556;1244;140041;-64
2022/10/02 15:26:18;;;;;;;5.70;1.80;;;;;;;16.15;58.53;98608.91;224024;1249;140112;-64
2022/10/02 15:31:21;;;;;;;112.10;87.00;;;;;;;16.22;59.00;98613.10;224009;1251;140104;-65
2022/10/02 15:37:03;;;;;;;13.30;10.90;;;;;;;16.35;59.41;98607.15;224728;1244;140329;-65
2022/10/02 15:42:08;;;;;;;5.70;1.70;;;;;;;16.38;59.26;98609.20;223792;1247;139678;-65
2022/10/02 15:47:26;;;;;;;4.70;1.60;;;;;;;16.28;59.20;98620.26;224694;1238;140528;-64
2022/10/02 15:52:51;;;;;;;6.20;2.10;;;;;;;16.19;59.16;98620.71;224004;1251;139423;-63
2022/10/02 15:57:56;;;;;;;4.70;1.90;;;;;;;16.14;59.49;98617.86;224636;1238;139284;-63
2022/10/02 16:03:14;;;;;;;4.40;1.70;;;;;;;16.04;59.63;98622.83;224694;1238;140219;-63
2022/10/02 16:08:32;;;;;;;5.40;2.00;;;;;;;15.95;59.35;98628.70;224722;1236;140702;-64
2022/10/02 16:13:38;;;;;;;3.70;1.80;;;;;;;15.90;59.57;98627.66;223121;1247;138903;-63
2022/10/02 16:18:54;;;;;;;8.30;4.10;;;;;;;15.86;59.49;98624.30;223866;1253;139302;-64
2022/10/02 16:24:38;;;;;;;4.30;2.10;;;;;;;15.83;59.55;98627.09;224010;1247;140265;-64
2022/10/02 16:29:47;;;;;;;3.90;1.70;;;;;;;15.73;59.62;98654.41;223829;1251;139834;-65
2022/10/02 16:35:17;;;;;;;3.70;1.90;;;;;;;15.70;59.82;98659.92;224649;1244;140057;-66
2022/10/02 16:40:27;;;;;;;7.00;4.10;;;;;;;15.66;60.04;98641.11;224574;1244;139945;-66
2022/10/02 16:45:31;;;;;;;5.00;2.20;;;;;;;15.60;60.17;98624.13;224046;1250;139641;-64
2022/10/02 16:50:53;;;;;;;4.00;2.40;;;;;;;15.54;60.28;98628.94;224265;1244;140341;-63
2022/10/02 16:56:10;;;;;;;4.60;2.20;;;;;;;15.45;60.25;98632.27;223907;1251;139565;-64
2022/10/02 17:01:34;;;;;;;4.30;2.20;;;;;;;15.43;60.46;98633.88;224046;1245;140161;-63
2022/10/02 17:06:51;;;;;;;6.90;2.20;;;;;;;15.37;60.54;98635.25;224010;1247;138482;-63
2022/10/02 17:12:12;;;;;;;5.90;2.00;;;;;;;15.32;60.65;98635.86;224050;1243;139488;-63
2022/10/02 17:17:51;;;;;;;5.20;2.30;;;;;;;15.29;60.67;98636.84;224225;1243;138713;-64
2022/10/02 17:23:02;;;;;;;6.20;2.30;;;;;;;15.34;60.90;98636.60;224193;1244;140504;-63
2022/10/02 17:28:19;;;;;;;6.60;2.40;;;;;;;15.36;60.80;98633.40;224252;1247;139931;-64
2022/10/02 17:33:26;;;;;;;6.70;2.70;;;;;;;15.35;61.00;98623.29;224318;1251;139279;-65
2022/10/02 17:38:41;;;;;;;7.00;2.80;;;;;;;15.30;61.11;98619.20;224182;1244;140071;-64
2022/10/02 17:43:56;;;;;;;5.40;3.10;;;;;;;15.26;61.01;98610.33;224689;1244;139518;-65
2022/10/02 17:49:20;;;;;;;6.20;3.80;;;;;;;15.22;61.10;98611.38;224072;1243;139779;-66
2022/10/02 18:00:15;;;;;;;8.30;3.70;;;;;;;15.14;61.17;98605.70;224587;1244;139430;-65
2022/10/02 18:05:31;;;;;;;9.90;3.10;;;;;;;15.09;61.21;98593.18;224071;1244;139702;-64
2022/10/02 18:10:58;;;;;;;8.10;3.40;;;;;;;15.09;61.54;98591.64;224065;1244;143235;-65
2022/10/02 18:16:20;;;;;;;6.50;3.40;;;;;;;15.07;61.74;98591.93;224679;1240;139797;-65
2022/10/02 18:21:39;;;;;;;6.50;3.80;;;;;;;15.06;61.94;98590.48;224800;1240;139726;-66
2022/10/02 18:27:02;;;;;;;9.90;4.30;;;;;;;15.01;62.13;98588.60;224047;1254;140062;-65
2022/10/02 18:32:43;;;;;;;8.90;4.90;;;;;;;14.96;62.36;98589.70;223980;1245;139706;-71
2022/10/02 18:38:12;;;;;;;6.40;3.80;;;;;;;14.99;62.84;98580.16;224770;1237;140655;-66
2022/10/02 18:43:46;;;;;;;26.00;19.00;;;;;;;14.98;62.99;98582.27;224078;1243;139472;-66
2022/10/02 18:49:07;;;;;;;9.80;4.20;;;;;;;15.05;63.07;98580.70;224005;1251;139890;-66
2022/10/02 18:54:31;;;;;;;13.40;4.70;;;;;;;15.12;63.05;98582.90;224658;1241;140487;-67
2022/10/02 18:59:49;;;;;;;11.10;4.30;;;;;;;15.18;63.16;98586.73;224054;1247;140198;-67
2022/10/02 19:05:03;;;;;;;;;;;;;;;15.19;63.23;98586.14;224688;1244;139685;-70
2022/10/02 19:10:34;;;;;;;8.30;4.60;;;;;;;15.07;63.28;98604.13;224085;1242;125679;-70
2022/10/02 19:15:41;;;;;;;10.60;4.40;;;;;;;15.02;63.65;98669.73;224013;1243;139025;-69
2022/10/02 19:20:50;;;;;;;4.60;2.50;;;;;;;14.89;63.13;98671.48;224171;1243;138817;-68
2022/10/02 19:25:57;;;;;;;6.30;2.30;;;;;;;14.66;62.91;98667.11;224035;1247;139226;-70
2022/10/02 19:31:10;;;;;;;3.60;1.70;;;;;;;14.50;62.92;98659.94;223334;1247;140211;-71
2022/10/02 19:36:25;;;;;;;4.80;1.70;;;;;;;14.36;63.01;98648.03;224764;1235;140205;-69
2022/10/02 19:41:38;;;;;;;4.30;1.60;;;;;;;14.26;63.24;98641.02;224073;1244;140925;-66
2022/10/02 19:46:47;;;;;;;2.70;1.60;;;;;;;14.17;63.41;98629.47;224064;1245;139290;-68
2022/10/02 19:51:53;;;;;;;3.00;1.60;;;;;;;14.13;63.51;98630.34;224036;1241;139551;-66
2022/10/02 19:57:13;;;;;;;2.90;1.70;;;;;;;14.07;63.64;98636.76;224137;1243;140058;-67
2022/10/02 20:02:34;;;;;;;4.40;1.60;;;;;;;14.01;63.84;98635.45;224084;1248;139366;-68
2022/10/02 20:07:38;;;;;;;3.30;2.00;;;;;;;13.94;63.82;98634.17;224102;1247;139567;-66
2022/10/02 20:12:52;;;;;;;4.00;1.60;;;;;;;13.88;63.95;98646.09;224035;1245;139063;-68
2022/10/02 20:17:55;;;;;;;4.90;3.00;;;;;;;13.87;64.15;98651.89;224686;1236;140346;-68
2022/10/02 20:23:04;;;;;;;7.50;2.60;;;;;;;13.87;64.23;98652.96;223569;1244;140664;-67
2022/10/02 20:28:31;;;;;;;4.60;2.90;;;;;;;13.91;64.31;98651.77;224669;1245;140150;-68
2022/10/02 20:33:38;;;;;;;4.40;2.70;;;;;;;13.93;64.58;98655.84;224177;1241;139241;-69
2022/10/02 20:38:52;;;;;;;6.30;3.30;;;;;;;13.92;64.45;98659.88;224134;1252;140117;-68
2022/10/02 20:44:03;;;;;;;8.90;3.60;;;;;;;13.88;64.57;98670.02;224048;1251;140013;-68
2022/10/02 20:49:25;;;;;;;8.20;4.10;;;;;;;13.82;64.60;98672.29;224603;1244;139227;-68
2022/10/02 20:54:36;;;;;;;6.50;3.90;;;;;;;13.76;64.66;98673.54;224063;1253;139105;-68
2022/10/02 20:59:46;;;;;;;8.50;4.30;;;;;;;13.76;64.64;98672.81;223935;1251;139937;-67
2022/10/02 21:05:20;;;;;;;8.40;4.00;;;;;;;13.78;64.84;98669.25;224684;1235;139823;-68
2022/10/02 21:10:47;;;;;;;6.70;4.20;;;;;;;13.77;64.84;98673.10;224081;1254;138982;-68
2022/10/02 21:16:15;;;;;;;6.90;4.00;;;;;;;13.72;64.95;98680.08;224094;1252;139198;-69
2022/10/02 21:21:23;;;;;;;8.90;4.70;;;;;;;13.62;64.87;98680.16;224190;1248;140155;-70
2022/10/02 21:26:32;;;;;;;8.40;4.10;;;;;;;13.54;64.74;98683.68;224659;1243;138829;-69
2022/10/02 21:32:00;;;;;;;12.40;4.30;;;;;;;13.51;64.99;98690.50;224753;1244;140222;-70
2022/10/02 21:37:34;;;;;;;7.30;4.00;;;;;;;13.54;65.54;98690.77;224086;1249;140384;-69
2022/10/02 21:42:58;;;;;;;7.20;4.50;;;;;;;13.55;65.50;98689.97;224012;1247;139559;-68
2022/10/02 21:48:40;;;;;;;12.00;4.50;;;;;;;13.51;65.52;98685.36;224704;1244;139403;-66
2022/10/02 21:54:19;;;;;;;12.00;5.60;;;;;;;13.47;65.59;98685.64;224128;1245;139623;-68
2022/10/02 21:59:34;;;;;;;10.30;4.90;;;;;;;13.37;65.63;98684.44;223881;1253;139283;-66
2022/10/02 22:04:55;;;;;;;9.70;5.00;;;;;;;13.38;65.81;98680.81;224194;1251;141288;-66
2022/10/02 22:10:03;;;;;;;12.90;5.60;;;;;;;13.43;65.97;98677.60;224681;1244;139581;-67
2022/10/02 22:15:22;;;;;;;7.90;4.80;;;;;;;13.42;65.96;98685.65;224139;1251;139271;-66
2022/10/02 22:20:49;;;;;;;9.30;5.10;;;;;;;13.42;65.98;98682.45;224784;1244;139539;-66
2022/10/02 22:26:05;;;;;;;8.30;5.30;;;;;;;13.41;66.01;98693.02;224763;1244;139137;-66
2022/10/02 22:31:38;;;;;;;9.20;4.60;;;;;;;13.37;66.02;98693.88;224108;1251;151989;-71
2022/10/02 22:36:56;;;;;;;11.40;4.90;;;;;;;13.42;66.15;98693.48;224171;1252;140033;-68
2022/10/02 22:42:06;;;;;;;7.80;5.00;;;;;;;13.48;66.32;98699.63;224096;1248;140011;-67
2022/10/02 22:47:22;;;;;;;11.80;5.30;;;;;;;13.50;66.20;98705.02;224077;1254;138667;-68
2022/10/02 22:52:36;;;;;;;9.20;5.00;;;;;;;13.48;66.31;98699.64;224052;1252;139350;-65
2022/10/02 22:57:45;;;;;;;8.20;5.00;;;;;;;13.50;66.29;98704.29;224107;1245;138922;-64
2022/10/02 23:03:07;;;;;;;9.00;4.10;;;;;;;13.48;66.18;98702.64;224232;1248;139511;-66
2022/10/02 23:08:29;;;;;;;9.00;4.70;;;;;;;13.51;66.30;98706.71;224181;1251;140490;-67
2022/10/02 23:13:43;;;;;;;7.80;4.10;;;;;;;13.54;66.47;98710.06;224001;1248;139659;-68
2022/10/02 23:19:27;;;;;;;8.90;4.50;;;;;;;13.49;66.37;98715.05;224768;1245;139765;-67
2022/10/02 23:24:48;;;;;;;7.60;3.70;;;;;;;13.43;66.49;98719.26;224620;1244;139284;-65
2022/10/02 23:30:17;;;;;;;9.80;4.10;;;;;;;13.39;66.37;98720.86;224828;1242;139662;-64
2022/10/02 23:35:26;;;;;;;6.90;3.80;;;;;;;13.42;66.56;98716.54;224145;1251;140112;-64
2022/10/02 23:46:03;;;;;;;8.80;3.20;;;;;;;13.49;66.56;98723.58;224650;1241;139365;-65
2022/10/02 23:51:37;;;;;;;5.70;3.20;;;;;;;13.46;66.46;98727.00;224134;1252;139527;-68
2022/10/02 23:56:59;;;;;;;6.70;3.00;;;;;;;13.47;66.47;98725.33;224082;1251;139223;-67
